Limoges Airport

LFBL · Haute-Vienne, Nouvelle-Aquitaine, 法国

罗盘
风向 的 风向 210° Limoges Airport 3/21
风: 8 kt, 3 beaufort

8 kt

改变
0 ft 1.000 2.000 3.000 4.000 5.000
Cloud Cloud Cloud Cloud Cloud Cloud Cloud Cloud
OVC 300
METAR LFBL 010500Z AUTO 21008KT 9999 OVC003 04/04 Q1011 TEMPO 0700 FG VV/// BECMG 28010KT

METAR Limoges Airport - LFBL/LIG

Limoges Airport是,法国中的中型机场。 该机场位于纬度45,86190和经度1,18137。 该机场有一条跑道: 3/21. 本场的ICAO机场代码为LFBL。 该机场的IATA代码为LIG。 机场在Bordeaux FIR中。

该航空气象观测是针对Limoges Airport在2024年3月1日 06:00, 当地时间进行的。

机场观察

风向为210°,速度为8 kt。

可见度为10 km 或者更多。

有乌云密布在300 ft的高度。 破损或更高的上限为300 ft。

温度为4 °C,阵风为-1 °C。 露点为4 °C,相对湿度为100%。 海平面上的气压为1011 hPa (QNH)。

发展趋势

  • 暂时的

    可变方向的风很小或没有。 可见性变为700 m。 重大天气:多雾路段。 垂直能见度.

  • 变得

    风来自280°方向,速度为10 kt。

白天

今天,太阳从07:32升起,在18:42降落。 这适用于Limoges Airport,世界夏令时可能有所不同。 当地时间与世界标准时间之间的时差为+1 小时。 当前,没有夏令时有效。

公司介绍

在这个机场,你可以找到飞行俱乐部。 这个机场上的公司有Aéroclub de Limoges-Bellegarde 和 Aéroclub NASA Centre Haute-Vienne Limoges Voltige。

体会

到Vliegles.nl去找飞行课程,跳伞和其他飞行体验。 浏览页面,了解Limoges Airport附近所有可用的活动。 你也可以使用搜索功能来寻找你所在地附近的特定飞行课程、跳伞或其他飞行体验。

跑道

Id 标题 侧风 逆风 侧风 %
3/21 032°-212° 8 kt 3 %

逆风成分最大的方向会被突出显示,并用于横风计算。 这并不一定意味着这个方向在使用。

乌云

300 ft OVC 乌云密布
0 ft VV 暂时的 垂直能见度

温度 & 天气

温度 4 °C
露点 4 °C
相对湿度 100%
风寒 -1 °C
Kp-index 3 (0-9)

白天

日出
07:32 (1:15)
中午
13:07
日落
18:42

小工具

你想在你的网站上有一个关于Limoges Airport的当前航空天气(METAR)的小部件吗?

显示HTML代码
?>